Gener8 Athena — V7MK2 — position and weather

sailwx.info

Track history (hours):
 
Tides and Currents Weather Stations Pressure Air Temp Water Temp Dewpoint Dewpoint Depression Visibility Wind Speed Wind Dir Waves Ship Positions

Gener8 Athena

Last reported at 2018-Jun-15 13:55 UTC. Time now 2018-Jun-24 11:02 UTC.
Position N 01°38' E 104°42'.
Warning: this ship's position is 8 days out of date.

Length 336 m; draft 21 m.

Type: Tanker. MMSI: 538006373.

Date/timePositionNaut miles runAvg speedWind from/ knotsBaromVisibWave heightAir tempDewpointWater temp
2018-Jun-15 13:55N 01°38' E 104°42'710.7
2018-Jun-15 13:17N 01°33' E 104°38'3 7.9
2018-Jun-15 12:51N 01°30' E 104°36'3 4.2
2018-Jun-15 12:15N 01°29' E 104°34'3 5.1
2018-Jun-15 11:37N 01°27' E 104°31'2 7.0
2018-Jun-15 11:20N 01°26' E 104°30'3 7.2
2018-Jun-15 10:53N 01°24' E 104°27'3 7.9
2018-Jun-15 10:30N 01°22' E 104°25'5 9.4
2018-Jun-15 09:58N 01°18' E 104°21'4 9.2
2018-Jun-15 09:30N 01°17' E 104°17'4 8.2
2018-Jun-15 09:00N 01°16' E 104°13'4 6.3
2018-Jun-15 08:24N 01°16' E 104°09'3 6.4
2018-Jun-15 08:00N 01°15' E 104°07'3 6.6
2018-Jun-15 07:30N 01°15' E 104°03'3 6.1
2018-Jun-15 07:00N 01°14' E 104°00'2 4.5
2018-Jun-15 06:30N 01°14' E 103°58'4 7.6
2018-Jun-15 06:00N 01°13' E 103°55'4 9.0
2018-Jun-15 05:30N 01°11' E 103°51'3 6.1
2018-Jun-15 05:00N 01°10' E 103°48'3 5.4
2018-Jun-15 04:30N 01°08' E 103°46'3 5.8
2018-Jun-15 04:00N 01°06' E 103°44'3 5.9
2018-Jun-15 03:30N 01°04' E 103°41'3 5.4
2018-Jun-15 03:00N 01°03' E 103°39'3 7.0
2018-Jun-15 02:31N 01°05' E 103°36'5 9.8
2018-Jun-15 02:00N 01°07' E 103°31'5 9.8
2018-Jun-15 01:30N 01°10' E 103°27'4 9.0
2018-Jun-15 01:00N 01°12' E 103°23'611.1
2018-Jun-15 00:30N 01°16' E 103°19'611.7
2018-Jun-14 23:59N 01°20' E 103°15'  
Track history (hours):
 
Tides and Currents Weather Stations Pressure Air Temp Water Temp Dewpoint Dewpoint Depression Visibility Wind Speed Wind Dir Waves Ship Positions

Gener8 Athena

Last reported at 2018-Jun-15 13:55 UTC. Time now 2018-Jun-24 11:02 UTC.
Position N 01°38' E 104°42'.
Warning: this ship's position is 8 days out of date.

Length 336 m; draft 21 m.

Type: Tanker. MMSI: 538006373.

Date/timePositionNaut miles runAvg speedWind from/ knotsBaromVisibWave heightAir tempDewpointWater temp
2018-Jun-15 13:55N 01°38' E 104°42'710.7
2018-Jun-15 13:17N 01°33' E 104°38'3 7.9
2018-Jun-15 12:51N 01°30' E 104°36'3 4.2
2018-Jun-15 12:15N 01°29' E 104°34'3 5.1
2018-Jun-15 11:37N 01°27' E 104°31'2 7.0
2018-Jun-15 11:20N 01°26' E 104°30'3 7.2
2018-Jun-15 10:53N 01°24' E 104°27'3 7.9
2018-Jun-15 10:30N 01°22' E 104°25'5 9.4
2018-Jun-15 09:58N 01°18' E 104°21'4 9.2
2018-Jun-15 09:30N 01°17' E 104°17'4 8.2
2018-Jun-15 09:00N 01°16' E 104°13'4 6.3
2018-Jun-15 08:24N 01°16' E 104°09'3 6.4
2018-Jun-15 08:00N 01°15' E 104°07'3 6.6
2018-Jun-15 07:30N 01°15' E 104°03'3 6.1
2018-Jun-15 07:00N 01°14' E 104°00'2 4.5
2018-Jun-15 06:30N 01°14' E 103°58'4 7.6
2018-Jun-15 06:00N 01°13' E 103°55'4 9.0
2018-Jun-15 05:30N 01°11' E 103°51'3 6.1
2018-Jun-15 05:00N 01°10' E 103°48'3 5.4
2018-Jun-15 04:30N 01°08' E 103°46'3 5.8
2018-Jun-15 04:00N 01°06' E 103°44'3 5.9
2018-Jun-15 03:30N 01°04' E 103°41'3 5.4
2018-Jun-15 03:00N 01°03' E 103°39'3 7.0
2018-Jun-15 02:31N 01°05' E 103°36'5 9.8
2018-Jun-15 02:00N 01°07' E 103°31'5 9.8
2018-Jun-15 01:30N 01°10' E 103°27'4 9.0
2018-Jun-15 01:00N 01°12' E 103°23'611.1
2018-Jun-15 00:30N 01°16' E 103°19'611.7
2018-Jun-14 23:59N 01°20' E 103°15'  

Dump ship's entire track history